sensor_id;sensor_type;location;lat;lon;timestamp;temperature;humidity
7077;DHT22;3579;48.956;9.154;2023-04-30T00:01:10;19.40;55.40
7077;DHT22;3579;48.956;9.154;2023-04-30T00:03:36;19.50;55.50
7077;DHT22;3579;48.956;9.154;2023-04-30T00:06:02;19.40;55.40
7077;DHT22;3579;48.956;9.154;2023-04-30T00:08:28;19.40;55.40
7077;DHT22;3579;48.956;9.154;2023-04-30T00:10:55;19.40;55.40
7077;DHT22;3579;48.956;9.154;2023-04-30T00:13:20;19.40;55.50
7077;DHT22;3579;48.956;9.154;2023-04-30T00:15:46;19.40;55.50
7077;DHT22;3579;48.956;9.154;2023-04-30T00:18:12;19.40;55.50
7077;DHT22;3579;48.956;9.154;2023-04-30T00:20:38;19.40;55.50
7077;DHT22;3579;48.956;9.154;2023-04-30T00:23:04;19.40;55.50
7077;DHT22;3579;48.956;9.154;2023-04-30T00:25:30;19.40;55.60
7077;DHT22;3579;48.956;9.154;2023-04-30T00:27:56;19.40;55.60
7077;DHT22;3579;48.956;9.154;2023-04-30T00:30:22;19.40;55.60
7077;DHT22;3579;48.956;9.154;2023-04-30T00:32:48;19.40;55.60
7077;DHT22;3579;48.956;9.154;2023-04-30T00:35:14;19.40;55.60
7077;DHT22;3579;48.956;9.154;2023-04-30T00:37:40;19.40;55.60
7077;DHT22;3579;48.956;9.154;2023-04-30T00:40:07;19.30;55.60
7077;DHT22;3579;48.956;9.154;2023-04-30T00:42:33;19.30;55.60
7077;DHT22;3579;48.956;9.154;2023-04-30T00:44:59;19.30;55.60
7077;DHT22;3579;48.956;9.154;2023-04-30T00:47:26;19.30;55.60
7077;DHT22;3579;48.956;9.154;2023-04-30T00:49:52;19.30;55.60
7077;DHT22;3579;48.956;9.154;2023-04-30T00:52:18;19.30;55.60
7077;DHT22;3579;48.956;9.154;2023-04-30T00:54:44;19.30;55.60
7077;DHT22;3579;48.956;9.154;2023-04-30T00:57:11;19.30;55.60
7077;DHT22;3579;48.956;9.154;2023-04-30T00:59:38;19.30;55.60
7077;DHT22;3579;48.956;9.154;2023-04-30T01:02:04;19.30;55.60
7077;DHT22;3579;48.956;9.154;2023-04-30T01:04:30;19.30;55.70
7077;DHT22;3579;48.956;9.154;2023-04-30T01:06:58;19.30;55.70
7077;DHT22;3579;48.956;9.154;2023-04-30T01:09:27;19.30;55.70
7077;DHT22;3579;48.956;9.154;2023-04-30T01:12:12;19.30;55.70
7077;DHT22;3579;48.956;9.154;2023-04-30T01:17:55;19.30;55.70
7077;DHT22;3579;48.956;9.154;2023-04-30T01:20:22;19.20;55.70
7077;DHT22;3579;48.956;9.154;2023-04-30T01:23:12;19.20;55.70
7077;DHT22;3579;48.956;9.154;2023-04-30T01:26:13;19.30;55.80
7077;DHT22;3579;48.956;9.154;2023-04-30T01:28:44;19.20;55.70
7077;DHT22;3579;48.956;9.154;2023-04-30T01:31:13;19.20;55.70
7077;DHT22;3579;48.956;9.154;2023-04-30T01:33:39;19.20;55.70
7077;DHT22;3579;48.956;9.154;2023-04-30T01:47:23;19.20;55.80
7077;DHT22;3579;48.956;9.154;2023-04-30T01:52:55;19.20;55.80
7077;DHT22;3579;48.956;9.154;2023-04-30T01:57:57;19.20;55.90
7077;DHT22;3579;48.956;9.154;2023-04-30T02:00:25;19.20;55.90
7077;DHT22;3579;48.956;9.154;2023-04-30T02:02:51;19.10;55.80
7077;DHT22;3579;48.956;9.154;2023-04-30T02:05:18;19.10;55.80
7077;DHT22;3579;48.956;9.154;2023-04-30T02:07:45;19.20;56.00
7077;DHT22;3579;48.956;9.154;2023-04-30T02:10:13;19.10;55.80
7077;DHT22;3579;48.956;9.154;2023-04-30T02:12:39;19.10;55.80
7077;DHT22;3579;48.956;9.154;2023-04-30T02:15:06;19.10;55.80
7077;DHT22;3579;48.956;9.154;2023-04-30T02:17:33;19.10;55.80
7077;DHT22;3579;48.956;9.154;2023-04-30T02:19:59;19.10;55.80
7077;DHT22;3579;48.956;9.154;2023-04-30T02:22:25;19.10;55.90
7077;DHT22;3579;48.956;9.154;2023-04-30T02:24:51;19.10;55.90
7077;DHT22;3579;48.956;9.154;2023-04-30T02:27:21;19.10;55.90
7077;DHT22;3579;48.956;9.154;2023-04-30T02:29:48;19.10;55.90
7077;DHT22;3579;48.956;9.154;2023-04-30T02:32:14;19.10;56.00
7077;DHT22;3579;48.956;9.154;2023-04-30T02:34:40;19.10;56.00
7077;DHT22;3579;48.956;9.154;2023-04-30T02:37:07;19.10;56.00
7077;DHT22;3579;48.956;9.154;2023-04-30T02:39:33;19.10;56.00
7077;DHT22;3579;48.956;9.154;2023-04-30T02:41:59;19.10;56.00
7077;DHT22;3579;48.956;9.154;2023-04-30T02:44:25;19.00;55.90
7077;DHT22;3579;48.956;9.154;2023-04-30T02:46:51;19.00;56.00
7077;DHT22;3579;48.956;9.154;2023-04-30T02:49:17;19.00;56.00
7077;DHT22;3579;48.956;9.154;2023-04-30T02:51:43;19.00;56.00
7077;DHT22;3579;48.956;9.154;2023-04-30T02:54:09;19.00;56.00
7077;DHT22;3579;48.956;9.154;2023-04-30T02:56:35;19.00;56.00
7077;DHT22;3579;48.956;9.154;2023-04-30T02:59:03;19.00;56.00
7077;DHT22;3579;48.956;9.154;2023-04-30T03:01:29;19.00;56.00
7077;DHT22;3579;48.956;9.154;2023-04-30T03:03:55;19.00;56.00
7077;DHT22;3579;48.956;9.154;2023-04-30T03:06:23;19.00;56.00
7077;DHT22;3579;48.956;9.154;2023-04-30T03:08:49;19.00;56.10
7077;DHT22;3579;48.956;9.154;2023-04-30T03:11:15;19.00;56.00
7077;DHT22;3579;48.956;9.154;2023-04-30T03:13:42;19.00;56.10
7077;DHT22;3579;48.956;9.154;2023-04-30T03:16:08;19.00;56.10
7077;DHT22;3579;48.956;9.154;2023-04-30T03:18:34;19.00;56.10
7077;DHT22;3579;48.956;9.154;2023-04-30T03:21:00;19.00;56.10
7077;DHT22;3579;48.956;9.154;2023-04-30T03:23:27;19.00;56.10
7077;DHT22;3579;48.956;9.154;2023-04-30T03:25:53;19.00;56.10
7077;DHT22;3579;48.956;9.154;2023-04-30T03:28:19;19.00;56.10
7077;DHT22;3579;48.956;9.154;2023-04-30T03:30:45;19.00;56.10
7077;DHT22;3579;48.956;9.154;2023-04-30T03:33:11;19.00;56.10
7077;DHT22;3579;48.956;9.154;2023-04-30T03:35:37;18.90;56.10
7077;DHT22;3579;48.956;9.154;2023-04-30T03:38:03;18.90;56.10
7077;DHT22;3579;48.956;9.154;2023-04-30T03:40:29;18.90;56.10
7077;DHT22;3579;48.956;9.154;2023-04-30T03:42:55;19.00;56.20
7077;DHT22;3579;48.956;9.154;2023-04-30T03:45:21;18.90;56.10
7077;DHT22;3579;48.956;9.154;2023-04-30T03:47:48;18.90;56.10
7077;DHT22;3579;48.956;9.154;2023-04-30T03:50:16;18.90;56.10
7077;DHT22;3579;48.956;9.154;2023-04-30T03:52:43;18.90;56.10
7077;DHT22;3579;48.956;9.154;2023-04-30T03:55:09;18.90;56.20
7077;DHT22;3579;48.956;9.154;2023-04-30T03:57:35;18.90;56.10
7077;DHT22;3579;48.956;9.154;2023-04-30T04:00:02;18.90;56.20
7077;DHT22;3579;48.956;9.154;2023-04-30T04:02:32;18.90;56.20
7077;DHT22;3579;48.956;9.154;2023-04-30T04:04:59;18.90;56.10
7077;DHT22;3579;48.956;9.154;2023-04-30T04:07:25;18.90;56.20
7077;DHT22;3579;48.956;9.154;2023-04-30T04:09:51;18.90;56.20
7077;DHT22;3579;48.956;9.154;2023-04-30T04:12:17;18.90;56.20
7077;DHT22;3579;48.956;9.154;2023-04-30T04:14:43;18.90;56.20
7077;DHT22;3579;48.956;9.154;2023-04-30T04:17:08;18.90;56.20
7077;DHT22;3579;48.956;9.154;2023-04-30T04:19:35;18.80;56.10
7077;DHT22;3579;48.956;9.154;2023-04-30T04:22:01;18.90;56.20
7077;DHT22;3579;48.956;9.154;2023-04-30T04:24:27;18.80;56.10
7077;DHT22;3579;48.956;9.154;2023-04-30T04:26:54;18.90;56.20
7077;DHT22;3579;48.956;9.154;2023-04-30T04:29:20;18.80;56.20
7077;DHT22;3579;48.956;9.154;2023-04-30T04:31:46;18.90;56.50
7077;DHT22;3579;48.956;9.154;2023-04-30T04:34:13;18.90;56.20
7077;DHT22;3579;48.956;9.154;2023-04-30T04:36:39;18.80;56.10
7077;DHT22;3579;48.956;9.154;2023-04-30T04:39:06;18.80;56.10
7077;DHT22;3579;48.956;9.154;2023-04-30T04:41:33;18.90;56.20
7077;DHT22;3579;48.956;9.154;2023-04-30T04:44:00;18.80;56.10
7077;DHT22;3579;48.956;9.154;2023-04-30T04:46:28;18.80;56.10
7077;DHT22;3579;48.956;9.154;2023-04-30T04:48:54;18.90;56.20
7077;DHT22;3579;48.956;9.154;2023-04-30T04:51:20;18.80;56.10
7077;DHT22;3579;48.956;9.154;2023-04-30T04:53:46;18.90;56.20
7077;DHT22;3579;48.956;9.154;2023-04-30T04:56:12;18.90;56.20
7077;DHT22;3579;48.956;9.154;2023-04-30T04:58:40;18.90;56.10
7077;DHT22;3579;48.956;9.154;2023-04-30T05:01:06;18.90;56.10
7077;DHT22;3579;48.956;9.154;2023-04-30T05:03:34;18.90;56.10
7077;DHT22;3579;48.956;9.154;2023-04-30T05:06:04;18.90;56.10
7077;DHT22;3579;48.956;9.154;2023-04-30T05:08:30;18.90;56.00
7077;DHT22;3579;48.956;9.154;2023-04-30T05:10:56;18.90;56.00
7077;DHT22;3579;48.956;9.154;2023-04-30T05:13:22;18.90;56.00
7077;DHT22;3579;48.956;9.154;2023-04-30T05:15:52;18.90;56.00
7077;DHT22;3579;48.956;9.154;2023-04-30T05:18:19;18.90;55.90
7077;DHT22;3579;48.956;9.154;2023-04-30T05:20:45;19.00;56.00
7077;DHT22;3579;48.956;9.154;2023-04-30T05:23:11;19.00;55.90
7077;DHT22;3579;48.956;9.154;2023-04-30T05:25:37;19.00;55.90
7077;DHT22;3579;48.956;9.154;2023-04-30T05:28:03;19.00;55.90
7077;DHT22;3579;48.956;9.154;2023-04-30T05:30:29;19.00;55.80
7077;DHT22;3579;48.956;9.154;2023-04-30T05:32:56;19.10;55.80
7077;DHT22;3579;48.956;9.154;2023-04-30T05:35:22;19.10;55.80
7077;DHT22;3579;48.956;9.154;2023-04-30T05:37:48;19.10;56.20
7077;DHT22;3579;48.956;9.154;2023-04-30T05:40:14;19.20;55.70
7077;DHT22;3579;48.956;9.154;2023-04-30T05:42:41;19.20;55.60
7077;DHT22;3579;48.956;9.154;2023-04-30T05:45:12;19.20;55.50
7077;DHT22;3579;48.956;9.154;2023-04-30T05:47:39;19.30;55.40
7077;DHT22;3579;48.956;9.154;2023-04-30T05:50:06;19.30;55.30
7077;DHT22;3579;48.956;9.154;2023-04-30T05:52:32;19.40;55.20
7077;DHT22;3579;48.956;9.154;2023-04-30T05:54:58;19.40;55.10
7077;DHT22;3579;48.956;9.154;2023-04-30T05:57:24;19.40;55.00
7077;DHT22;3579;48.956;9.154;2023-04-30T05:59:50;19.50;54.90
7077;DHT22;3579;48.956;9.154;2023-04-30T06:02:16;19.50;54.70
7077;DHT22;3579;48.956;9.154;2023-04-30T06:04:42;19.70;54.70
7077;DHT22;3579;48.956;9.154;2023-04-30T06:07:08;19.80;54.50
7077;DHT22;3579;48.956;9.154;2023-04-30T06:09:34;19.90;54.30
7077;DHT22;3579;48.956;9.154;2023-04-30T06:12:00;20.00;54.20
7077;DHT22;3579;48.956;9.154;2023-04-30T06:14:27;20.10;54.00
7077;DHT22;3579;48.956;9.154;2023-04-30T06:16:53;20.20;53.80
7077;DHT22;3579;48.956;9.154;2023-04-30T06:19:19;20.30;53.50
7077;DHT22;3579;48.956;9.154;2023-04-30T06:21:45;20.40;53.30
7077;DHT22;3579;48.956;9.154;2023-04-30T06:24:11;20.50;53.20
7077;DHT22;3579;48.956;9.154;2023-04-30T06:26:37;20.80;52.90
7077;DHT22;3579;48.956;9.154;2023-04-30T06:29:03;20.80;52.60
7077;DHT22;3579;48.956;9.154;2023-04-30T06:31:30;20.80;52.50
7077;DHT22;3579;48.956;9.154;2023-04-30T06:33:56;21.20;52.40
7077;DHT22;3579;48.956;9.154;2023-04-30T06:36:22;22.10;51.40
7077;DHT22;3579;48.956;9.154;2023-04-30T06:38:48;22.50;50.10
7077;DHT22;3579;48.956;9.154;2023-04-30T06:41:14;22.90;49.50
7077;DHT22;3579;48.956;9.154;2023-04-30T06:43:42;23.30;49.10
7077;DHT22;3579;48.956;9.154;2023-04-30T06:46:08;23.50;48.50
7077;DHT22;3579;48.956;9.154;2023-04-30T06:48:34;23.30;48.40
7077;DHT22;3579;48.956;9.154;2023-04-30T06:51:00;24.10;48.40
7077;DHT22;3579;48.956;9.154;2023-04-30T06:53:26;25.30;46.70
7077;DHT22;3579;48.956;9.154;2023-04-30T06:55:52;26.40;45.00
7077;DHT22;3579;48.956;9.154;2023-04-30T06:58:18;27.00;43.40
7077;DHT22;3579;48.956;9.154;2023-04-30T07:00:44;27.50;42.60
7077;DHT22;3579;48.956;9.154;2023-04-30T07:03:10;27.90;41.80
7077;DHT22;3579;48.956;9.154;2023-04-30T07:05:36;28.30;41.20
7077;DHT22;3579;48.956;9.154;2023-04-30T07:08:03;28.60;40.60
7077;DHT22;3579;48.956;9.154;2023-04-30T07:10:29;28.70;40.20
7077;DHT22;3579;48.956;9.154;2023-04-30T07:12:56;28.80;40.10
7077;DHT22;3579;48.956;9.154;2023-04-30T07:15:22;28.90;39.90
7077;DHT22;3579;48.956;9.154;2023-04-30T07:17:48;28.60;40.00
7077;DHT22;3579;48.956;9.154;2023-04-30T07:20:14;28.40;40.30
7077;DHT22;3579;48.956;9.154;2023-04-30T07:22:43;27.40;40.90
7077;DHT22;3579;48.956;9.154;2023-04-30T07:25:13;26.50;42.50
7077;DHT22;3579;48.956;9.154;2023-04-30T07:27:39;25.90;43.80
7077;DHT22;3579;48.956;9.154;2023-04-30T07:30:07;25.40;44.80
7077;DHT22;3579;48.956;9.154;2023-04-30T07:32:37;25.10;45.50
7077;DHT22;3579;48.956;9.154;2023-04-30T07:35:03;24.90;46.00
7077;DHT22;3579;48.956;9.154;2023-04-30T07:37:30;24.70;46.30
7077;DHT22;3579;48.956;9.154;2023-04-30T07:39:56;24.50;46.60
7077;DHT22;3579;48.956;9.154;2023-04-30T07:42:22;24.30;47.00
7077;DHT22;3579;48.956;9.154;2023-04-30T07:44:49;24.10;47.10
7077;DHT22;3579;48.956;9.154;2023-04-30T07:47:15;24.00;47.20
7077;DHT22;3579;48.956;9.154;2023-04-30T07:49:41;24.00;47.30
7077;DHT22;3579;48.956;9.154;2023-04-30T07:52:06;24.00;47.40
7077;DHT22;3579;48.956;9.154;2023-04-30T07:54:36;24.00;47.60
7077;DHT22;3579;48.956;9.154;2023-04-30T07:57:04;23.90;47.70
7077;DHT22;3579;48.956;9.154;2023-04-30T07:59:30;23.90;47.90
7077;DHT22;3579;48.956;9.154;2023-04-30T08:01:57;23.80;48.10
7077;DHT22;3579;48.956;9.154;2023-04-30T08:04:23;23.80;48.10
7077;DHT22;3579;48.956;9.154;2023-04-30T08:06:50;23.80;48.10
7077;DHT22;3579;48.956;9.154;2023-04-30T08:09:15;23.80;48.20
7077;DHT22;3579;48.956;9.154;2023-04-30T08:11:41;23.80;48.40
7077;DHT22;3579;48.956;9.154;2023-04-30T08:14:07;23.80;48.40
7077;DHT22;3579;48.956;9.154;2023-04-30T08:16:33;23.90;48.50
7077;DHT22;3579;48.956;9.154;2023-04-30T08:19:00;23.80;48.50
7077;DHT22;3579;48.956;9.154;2023-04-30T08:21:26;23.90;48.50
7077;DHT22;3579;48.956;9.154;2023-04-30T08:23:53;23.90;48.40
7077;DHT22;3579;48.956;9.154;2023-04-30T08:26:19;23.90;48.50
7077;DHT22;3579;48.956;9.154;2023-04-30T08:28:46;23.90;48.40
7077;DHT22;3579;48.956;9.154;2023-04-30T08:31:12;23.90;48.00
7077;DHT22;3579;48.956;9.154;2023-04-30T08:33:38;24.00;48.40
7077;DHT22;3579;48.956;9.154;2023-04-30T08:36:06;24.00;48.40
7077;DHT22;3579;48.956;9.154;2023-04-30T08:38:31;24.00;48.40
7077;DHT22;3579;48.956;9.154;2023-04-30T08:41:08;24.00;48.30
7077;DHT22;3579;48.956;9.154;2023-04-30T08:43:36;24.10;48.10
7077;DHT22;3579;48.956;9.154;2023-04-30T08:46:06;24.20;48.10
7077;DHT22;3579;48.956;9.154;2023-04-30T08:48:32;24.20;47.90
7077;DHT22;3579;48.956;9.154;2023-04-30T08:51:02;24.30;47.90
7077;DHT22;3579;48.956;9.154;2023-04-30T08:53:29;24.20;47.90
7077;DHT22;3579;48.956;9.154;2023-04-30T08:55:59;24.30;48.00
7077;DHT22;3579;48.956;9.154;2023-04-30T08:58:25;24.40;47.80
7077;DHT22;3579;48.956;9.154;2023-04-30T09:00:51;24.40;47.70
7077;DHT22;3579;48.956;9.154;2023-04-30T09:03:17;24.40;47.60
7077;DHT22;3579;48.956;9.154;2023-04-30T09:05:43;24.30;47.70
7077;DHT22;3579;48.956;9.154;2023-04-30T09:08:16;24.20;47.90
7077;DHT22;3579;48.956;9.154;2023-04-30T09:10:42;24.20;48.00
7077;DHT22;3579;48.956;9.154;2023-04-30T09:13:09;24.10;47.90
7077;DHT22;3579;48.956;9.154;2023-04-30T09:15:38;24.20;48.00
7077;DHT22;3579;48.956;9.154;2023-04-30T09:18:13;24.20;48.00
7077;DHT22;3579;48.956;9.154;2023-04-30T09:20:56;24.20;48.00
7077;DHT22;3579;48.956;9.154;2023-04-30T09:23:23;24.10;48.00
7077;DHT22;3579;48.956;9.154;2023-04-30T09:25:50;24.10;48.10
7077;DHT22;3579;48.956;9.154;2023-04-30T09:28:16;24.20;48.50
7077;DHT22;3579;48.956;9.154;2023-04-30T09:30:43;24.30;47.90
7077;DHT22;3579;48.956;9.154;2023-04-30T09:33:09;24.30;47.70
7077;DHT22;3579;48.956;9.154;2023-04-30T09:35:37;24.40;47.70
7077;DHT22;3579;48.956;9.154;2023-04-30T09:38:31;24.40;47.80
7077;DHT22;3579;48.956;9.154;2023-04-30T09:41:01;24.30;47.70
7077;DHT22;3579;48.956;9.154;2023-04-30T09:43:28;24.40;47.80
7077;DHT22;3579;48.956;9.154;2023-04-30T09:45:57;24.40;47.60
7077;DHT22;3579;48.956;9.154;2023-04-30T09:48:24;24.40;47.70
7077;DHT22;3579;48.956;9.154;2023-04-30T09:50:52;24.40;47.40
7077;DHT22;3579;48.956;9.154;2023-04-30T09:53:19;24.50;47.50
7077;DHT22;3579;48.956;9.154;2023-04-30T09:55:48;24.50;47.50
7077;DHT22;3579;48.956;9.154;2023-04-30T09:58:15;24.50;47.80
7077;DHT22;3579;48.956;9.154;2023-04-30T10:00:44;24.40;47.50
7077;DHT22;3579;48.956;9.154;2023-04-30T10:03:11;24.40;47.60
7077;DHT22;3579;48.956;9.154;2023-04-30T10:05:45;24.40;47.70
7077;DHT22;3579;48.956;9.154;2023-04-30T10:10:42;24.40;47.70
7077;DHT22;3579;48.956;9.154;2023-04-30T10:13:14;24.40;47.50
7077;DHT22;3579;48.956;9.154;2023-04-30T10:15:50;24.40;47.60
7077;DHT22;3579;48.956;9.154;2023-04-30T10:18:25;24.40;47.60
7077;DHT22;3579;48.956;9.154;2023-04-30T10:20:54;24.30;47.80
7077;DHT22;3579;48.956;9.154;2023-04-30T10:23:21;24.30;47.80
7077;DHT22;3579;48.956;9.154;2023-04-30T10:25:50;24.30;47.80
7077;DHT22;3579;48.956;9.154;2023-04-30T10:28:16;24.20;47.90
7077;DHT22;3579;48.956;9.154;2023-04-30T10:30:42;24.20;48.00
7077;DHT22;3579;48.956;9.154;2023-04-30T10:35:45;24.20;48.00
7077;DHT22;3579;48.956;9.154;2023-04-30T10:38:22;24.20;48.00
7077;DHT22;3579;48.956;9.154;2023-04-30T10:40:59;24.10;47.90
7077;DHT22;3579;48.956;9.154;2023-04-30T10:43:28;24.10;48.00
7077;DHT22;3579;48.956;9.154;2023-04-30T10:45:56;24.10;48.10
7077;DHT22;3579;48.956;9.154;2023-04-30T10:48:23;24.10;48.20
7077;DHT22;3579;48.956;9.154;2023-04-30T10:50:52;24.10;48.30
7077;DHT22;3579;48.956;9.154;2023-04-30T10:53:19;24.00;48.20
7077;DHT22;3579;48.956;9.154;2023-04-30T10:56:01;24.00;48.30
7077;DHT22;3579;48.956;9.154;2023-04-30T10:58:37;24.00;48.40
7077;DHT22;3579;48.956;9.154;2023-04-30T11:03:32;24.00;48.20
7077;DHT22;3579;48.956;9.154;2023-04-30T11:06:00;24.00;48.20
7077;DHT22;3579;48.956;9.154;2023-04-30T11:08:33;24.00;48.30
7077;DHT22;3579;48.956;9.154;2023-04-30T11:11:00;24.00;48.30
7077;DHT22;3579;48.956;9.154;2023-04-30T11:13:27;24.00;48.30
7077;DHT22;3579;48.956;9.154;2023-04-30T11:15:53;24.00;48.20
7077;DHT22;3579;48.956;9.154;2023-04-30T11:18:19;24.00;48.30
7077;DHT22;3579;48.956;9.154;2023-04-30T11:20:49;24.00;48.30
7077;DHT22;3579;48.956;9.154;2023-04-30T11:23:22;24.00;48.30
7077;DHT22;3579;48.956;9.154;2023-04-30T11:25:48;24.00;48.40
7077;DHT22;3579;48.956;9.154;2023-04-30T11:28:21;24.00;48.50
7077;DHT22;3579;48.956;9.154;2023-04-30T11:30:56;24.00;48.50
7077;DHT22;3579;48.956;9.154;2023-04-30T11:33:23;24.00;48.40
7077;DHT22;3579;48.956;9.154;2023-04-30T11:35:50;24.00;48.90
7077;DHT22;3579;48.956;9.154;2023-04-30T11:38:20;24.00;48.40
7077;DHT22;3579;48.956;9.154;2023-04-30T11:40:47;24.00;48.40
7077;DHT22;3579;48.956;9.154;2023-04-30T11:43:24;24.00;48.30
7077;DHT22;3579;48.956;9.154;2023-04-30T11:46:06;24.10;48.40
7077;DHT22;3579;48.956;9.154;2023-04-30T11:48:38;24.10;48.40
7077;DHT22;3579;48.956;9.154;2023-04-30T11:51:22;24.10;48.40
7077;DHT22;3579;48.956;9.154;2023-04-30T11:53:51;24.10;48.20
7077;DHT22;3579;48.956;9.154;2023-04-30T11:56:21;24.10;48.20
7077;DHT22;3579;48.956;9.154;2023-04-30T11:58:48;24.10;48.20
7077;DHT22;3579;48.956;9.154;2023-04-30T12:01:14;24.10;48.20
7077;DHT22;3579;48.956;9.154;2023-04-30T12:03:48;24.10;48.70
7077;DHT22;3579;48.956;9.154;2023-04-30T12:06:22;24.20;48.20
7077;DHT22;3579;48.956;9.154;2023-04-30T12:08:51;24.20;48.20
7077;DHT22;3579;48.956;9.154;2023-04-30T12:11:30;24.20;48.20
7077;DHT22;3579;48.956;9.154;2023-04-30T12:14:04;24.20;48.10
7077;DHT22;3579;48.956;9.154;2023-04-30T12:19:13;24.20;48.10
7077;DHT22;3579;48.956;9.154;2023-04-30T12:21:41;24.20;48.60
7077;DHT22;3579;48.956;9.154;2023-04-30T12:24:14;24.20;48.10
7077;DHT22;3579;48.956;9.154;2023-04-30T12:26:41;24.20;48.10
7077;DHT22;3579;48.956;9.154;2023-04-30T12:29:09;24.20;48.10
7077;DHT22;3579;48.956;9.154;2023-04-30T12:31:36;24.20;48.10
7077;DHT22;3579;48.956;9.154;2023-04-30T12:34:05;24.20;48.10
7077;DHT22;3579;48.956;9.154;2023-04-30T12:36:32;24.20;48.10
7077;DHT22;3579;48.956;9.154;2023-04-30T12:39:06;24.20;48.00
7077;DHT22;3579;48.956;9.154;2023-04-30T12:41:38;24.20;48.00
7077;DHT22;3579;48.956;9.154;2023-04-30T12:44:24;24.20;48.00
7077;DHT22;3579;48.956;9.154;2023-04-30T12:46:53;24.20;48.10
7077;DHT22;3579;48.956;9.154;2023-04-30T12:49:28;24.20;48.00
7077;DHT22;3579;48.956;9.154;2023-04-30T12:52:11;24.20;48.20
7077;DHT22;3579;48.956;9.154;2023-04-30T12:54:38;24.20;48.20
7077;DHT22;3579;48.956;9.154;2023-04-30T12:57:07;24.20;48.10
7077;DHT22;3579;48.956;9.154;2023-04-30T12:59:35;24.20;48.20
7077;DHT22;3579;48.956;9.154;2023-04-30T13:02:12;24.20;48.20
7077;DHT22;3579;48.956;9.154;2023-04-30T13:04:40;24.20;48.20
7077;DHT22;3579;48.956;9.154;2023-04-30T13:07:07;24.20;48.20
7077;DHT22;3579;48.956;9.154;2023-04-30T13:09:34;24.20;48.10
7077;DHT22;3579;48.956;9.154;2023-04-30T13:12:02;24.20;48.10
7077;DHT22;3579;48.956;9.154;2023-04-30T13:14:28;24.20;48.10
7077;DHT22;3579;48.956;9.154;2023-04-30T13:16:54;24.20;48.10
7077;DHT22;3579;48.956;9.154;2023-04-30T13:19:20;24.20;48.70
7077;DHT22;3579;48.956;9.154;2023-04-30T13:21:46;24.20;48.00
7077;DHT22;3579;48.956;9.154;2023-04-30T13:24:12;24.20;48.00
7077;DHT22;3579;48.956;9.154;2023-04-30T13:26:39;24.20;48.10
7077;DHT22;3579;48.956;9.154;2023-04-30T13:29:05;24.20;48.10
7077;DHT22;3579;48.956;9.154;2023-04-30T13:31:31;24.20;48.10
7077;DHT22;3579;48.956;9.154;2023-04-30T13:33:57;24.20;48.20
7077;DHT22;3579;48.956;9.154;2023-04-30T13:36:23;24.20;48.20
7077;DHT22;3579;48.956;9.154;2023-04-30T13:38:49;24.20;48.20
7077;DHT22;3579;48.956;9.154;2023-04-30T13:41:15;24.20;48.20
7077;DHT22;3579;48.956;9.154;2023-04-30T13:43:41;24.20;48.30
7077;DHT22;3579;48.956;9.154;2023-04-30T13:46:09;24.10;48.40
7077;DHT22;3579;48.956;9.154;2023-04-30T13:48:35;24.10;48.30
7077;DHT22;3579;48.956;9.154;2023-04-30T13:51:01;24.10;48.40
7077;DHT22;3579;48.956;9.154;2023-04-30T13:53:27;24.10;48.40
7077;DHT22;3579;48.956;9.154;2023-04-30T13:55:53;24.10;48.40
7077;DHT22;3579;48.956;9.154;2023-04-30T13:58:20;24.10;48.50
7077;DHT22;3579;48.956;9.154;2023-04-30T14:00:46;24.10;48.40
7077;DHT22;3579;48.956;9.154;2023-04-30T14:03:12;24.10;48.40
7077;DHT22;3579;48.956;9.154;2023-04-30T14:05:38;24.10;48.40
7077;DHT22;3579;48.956;9.154;2023-04-30T14:08:04;24.10;48.50
7077;DHT22;3579;48.956;9.154;2023-04-30T14:10:31;24.00;48.40
7077;DHT22;3579;48.956;9.154;2023-04-30T14:12:57;24.10;48.50
7077;DHT22;3579;48.956;9.154;2023-04-30T14:15:23;24.10;48.50
7077;DHT22;3579;48.956;9.154;2023-04-30T14:17:49;24.00;48.50
7077;DHT22;3579;48.956;9.154;2023-04-30T14:20:16;24.00;48.50
7077;DHT22;3579;48.956;9.154;2023-04-30T14:22:42;24.00;48.50
7077;DHT22;3579;48.956;9.154;2023-04-30T14:25:09;24.00;48.50
7077;DHT22;3579;48.956;9.154;2023-04-30T14:27:36;24.00;48.50
7077;DHT22;3579;48.956;9.154;2023-04-30T14:30:03;24.00;48.50
7077;DHT22;3579;48.956;9.154;2023-04-30T14:32:29;23.90;48.50
7077;DHT22;3579;48.956;9.154;2023-04-30T14:34:55;24.00;48.50
7077;DHT22;3579;48.956;9.154;2023-04-30T14:37:21;23.90;48.60
7077;DHT22;3579;48.956;9.154;2023-04-30T14:39:47;23.90;48.60
7077;DHT22;3579;48.956;9.154;2023-04-30T14:42:14;23.90;48.60
7077;DHT22;3579;48.956;9.154;2023-04-30T14:44:40;23.90;48.70
7077;DHT22;3579;48.956;9.154;2023-04-30T14:47:06;23.90;48.80
7077;DHT22;3579;48.956;9.154;2023-04-30T14:49:32;23.80;48.70
7077;DHT22;3579;48.956;9.154;2023-04-30T14:51:59;23.80;48.70
7077;DHT22;3579;48.956;9.154;2023-04-30T14:54:24;23.80;48.80
7077;DHT22;3579;48.956;9.154;2023-04-30T14:56:51;23.80;48.80
7077;DHT22;3579;48.956;9.154;2023-04-30T14:59:17;23.80;48.80
7077;DHT22;3579;48.956;9.154;2023-04-30T15:01:43;23.80;48.80
7077;DHT22;3579;48.956;9.154;2023-04-30T15:04:09;23.80;48.70
7077;DHT22;3579;48.956;9.154;2023-04-30T15:06:35;23.80;48.80
7077;DHT22;3579;48.956;9.154;2023-04-30T15:09:01;23.80;48.80
7077;DHT22;3579;48.956;9.154;2023-04-30T15:11:27;23.80;48.80
7077;DHT22;3579;48.956;9.154;2023-04-30T15:13:53;23.80;48.80
7077;DHT22;3579;48.956;9.154;2023-04-30T15:16:20;23.80;48.80
7077;DHT22;3579;48.956;9.154;2023-04-30T15:18:46;23.80;48.90
7077;DHT22;3579;48.956;9.154;2023-04-30T15:21:13;23.80;49.00
7077;DHT22;3579;48.956;9.154;2023-04-30T15:23:41;23.80;48.90
7077;DHT22;3579;48.956;9.154;2023-04-30T15:26:07;23.80;49.00
7077;DHT22;3579;48.956;9.154;2023-04-30T15:28:33;23.80;48.90
7077;DHT22;3579;48.956;9.154;2023-04-30T15:30:59;23.80;49.50
7077;DHT22;3579;48.956;9.154;2023-04-30T15:33:31;23.80;49.00
7077;DHT22;3579;48.956;9.154;2023-04-30T15:35:57;23.80;49.00
7077;DHT22;3579;48.956;9.154;2023-04-30T15:38:24;23.70;49.40
7077;DHT22;3579;48.956;9.154;2023-04-30T15:40:50;23.70;48.90
7077;DHT22;3579;48.956;9.154;2023-04-30T15:43:16;23.80;49.60
7077;DHT22;3579;48.956;9.154;2023-04-30T15:45:43;23.70;49.00
7077;DHT22;3579;48.956;9.154;2023-04-30T15:48:10;23.70;49.00
7077;DHT22;3579;48.956;9.154;2023-04-30T15:50:36;23.70;49.00
7077;DHT22;3579;48.956;9.154;2023-04-30T15:53:02;23.70;49.00
7077;DHT22;3579;48.956;9.154;2023-04-30T15:55:28;23.70;49.00
7077;DHT22;3579;48.956;9.154;2023-04-30T15:57:54;23.70;49.10
7077;DHT22;3579;48.956;9.154;2023-04-30T16:00:20;23.60;49.60
7077;DHT22;3579;48.956;9.154;2023-04-30T16:02:48;23.60;49.10
7077;DHT22;3579;48.956;9.154;2023-04-30T16:05:14;23.60;49.10
7077;DHT22;3579;48.956;9.154;2023-04-30T16:07:40;23.60;49.20
7077;DHT22;3579;48.956;9.154;2023-04-30T16:10:07;23.60;49.20
7077;DHT22;3579;48.956;9.154;2023-04-30T16:12:34;23.60;49.20
7077;DHT22;3579;48.956;9.154;2023-04-30T16:15:00;23.50;49.20
7077;DHT22;3579;48.956;9.154;2023-04-30T16:17:29;23.60;49.30
7077;DHT22;3579;48.956;9.154;2023-04-30T16:19:58;23.50;49.20
7077;DHT22;3579;48.956;9.154;2023-04-30T16:22:25;23.50;49.20
7077;DHT22;3579;48.956;9.154;2023-04-30T16:24:52;23.50;49.30
7077;DHT22;3579;48.956;9.154;2023-04-30T16:27:18;23.50;49.20
7077;DHT22;3579;48.956;9.154;2023-04-30T16:29:44;23.50;49.30
7077;DHT22;3579;48.956;9.154;2023-04-30T16:32:10;23.50;49.30
7077;DHT22;3579;48.956;9.154;2023-04-30T16:34:36;23.50;49.30